sensor_id;sensor_type;location;lat;lon;timestamp;pressure;altitude;pressure_sealevel;temperature;humidity
47260;BME280;32999;52.412;4.890;2023-04-01T00:01:52;99097.03;;;10.90;100.00
47260;BME280;32999;52.412;4.890;2023-04-01T00:06:55;99084.47;;;10.79;100.00
47260;BME280;32999;52.412;4.890;2023-04-01T00:11:57;99012.75;;;10.30;100.00
47260;BME280;32999;52.412;4.890;2023-04-01T00:16:58;99116.22;;;11.11;100.00
47260;BME280;32999;52.412;4.890;2023-04-01T00:22:01;99016.34;;;10.05;100.00
47260;BME280;32999;52.412;4.890;2023-04-01T00:27:04;99107.25;;;10.82;100.00
47260;BME280;32999;52.412;4.890;2023-04-01T00:32:08;99110.25;;;10.74;100.00
47260;BME280;32999;52.412;4.890;2023-04-01T00:37:12;99112.25;;;10.78;100.00
47260;BME280;32999;52.412;4.890;2023-04-01T00:42:14;99115.38;;;10.75;100.00
47260;BME280;32999;52.412;4.890;2023-04-01T00:47:30;99125.25;;;10.75;100.00
47260;BME280;32999;52.412;4.890;2023-04-01T00:52:33;99047.19;;;10.19;100.00
47260;BME280;32999;52.412;4.890;2023-04-01T00:57:36;99126.59;;;10.54;100.00
47260;BME280;32999;52.412;4.890;2023-04-01T01:02:41;99093.66;;;10.42;100.00
47260;BME280;32999;52.412;4.890;2023-04-01T01:07:47;99137.19;;;10.72;100.00
47260;BME280;32999;52.412;4.890;2023-04-01T01:13:01;99143.34;;;10.73;100.00
47260;BME280;32999;52.412;4.890;2023-04-01T01:18:11;99133.34;;;10.68;100.00
47260;BME280;32999;52.412;4.890;2023-04-01T01:23:48;99149.56;;;10.97;100.00
47260;BME280;32999;52.412;4.890;2023-04-01T01:29:04;99118.75;;;10.82;100.00
47260;BME280;32999;52.412;4.890;2023-04-01T01:34:18;99159.59;;;11.13;100.00
47260;BME280;32999;52.412;4.890;2023-04-01T01:39:26;99159.25;;;11.21;100.00
47260;BME280;32999;52.412;4.890;2023-04-01T01:44:30;99173.91;;;11.30;100.00
47260;BME280;32999;52.412;4.890;2023-04-01T01:49:35;99161.56;;;11.17;100.00
47260;BME280;32999;52.412;4.890;2023-04-01T01:54:48;99194.72;;;11.28;100.00
47260;BME280;32999;52.412;4.890;2023-04-01T01:59:52;99126.78;;;10.94;100.00
47260;BME280;32999;52.412;4.890;2023-04-01T02:04:55;99144.44;;;10.83;100.00
47260;BME280;32999;52.412;4.890;2023-04-01T02:09:59;99122.47;;;10.81;100.00
47260;BME280;32999;52.412;4.890;2023-04-01T02:15:04;99215.66;;;11.31;100.00
47260;BME280;32999;52.412;4.890;2023-04-01T02:20:11;99181.88;;;10.95;100.00
47260;BME280;32999;52.412;4.890;2023-04-01T02:25:19;99242.63;;;11.30;100.00
47260;BME280;32999;52.412;4.890;2023-04-01T02:30:22;99157.00;;;10.83;100.00
47260;BME280;32999;52.412;4.890;2023-04-01T02:35:25;99211.53;;;11.17;100.00
47260;BME280;32999;52.412;4.890;2023-04-01T02:40:28;99188.75;;;11.03;100.00
47260;BME280;32999;52.412;4.890;2023-04-01T02:45:30;99249.59;;;11.31;100.00
47260;BME280;32999;52.412;4.890;2023-04-01T02:50:32;99257.84;;;11.29;100.00
47260;BME280;32999;52.412;4.890;2023-04-01T02:55:35;99292.56;;;11.06;100.00
47260;BME280;32999;52.412;4.890;2023-04-01T03:00:37;99280.16;;;11.23;100.00
47260;BME280;32999;52.412;4.890;2023-04-01T03:05:39;99281.06;;;11.17;100.00
47260;BME280;32999;52.412;4.890;2023-04-01T03:10:42;99276.06;;;11.09;100.00
47260;BME280;32999;52.412;4.890;2023-04-01T03:15:44;99291.81;;;10.99;100.00
47260;BME280;32999;52.412;4.890;2023-04-01T03:20:46;99250.88;;;10.56;100.00
47260;BME280;32999;52.412;4.890;2023-04-01T03:25:49;99319.69;;;10.91;100.00
47260;BME280;32999;52.412;4.890;2023-04-01T03:30:50;99330.47;;;10.84;100.00
47260;BME280;32999;52.412;4.890;2023-04-01T03:35:52;99305.03;;;10.64;100.00
47260;BME280;32999;52.412;4.890;2023-04-01T03:40:56;99359.91;;;10.96;100.00
47260;BME280;32999;52.412;4.890;2023-04-01T03:45:57;99331.81;;;10.57;100.00
47260;BME280;32999;52.412;4.890;2023-04-01T03:50:59;99320.31;;;10.75;100.00
47260;BME280;32999;52.412;4.890;2023-04-01T03:56:05;99383.38;;;11.12;100.00
47260;BME280;32999;52.412;4.890;2023-04-01T04:01:14;99384.13;;;11.01;100.00
47260;BME280;32999;52.412;4.890;2023-04-01T04:06:17;99388.66;;;11.01;100.00
47260;BME280;32999;52.412;4.890;2023-04-01T04:11:21;99406.31;;;11.02;100.00
47260;BME280;32999;52.412;4.890;2023-04-01T04:16:23;99380.22;;;10.85;100.00
47260;BME280;32999;52.412;4.890;2023-04-01T04:21:25;99414.06;;;11.10;100.00
47260;BME280;32999;52.412;4.890;2023-04-01T04:26:28;99385.25;;;10.75;100.00
47260;BME280;32999;52.412;4.890;2023-04-01T04:31:30;99430.63;;;10.82;100.00
47260;BME280;32999;52.412;4.890;2023-04-01T04:36:32;99362.25;;;10.38;100.00
47260;BME280;32999;52.412;4.890;2023-04-01T04:41:37;99444.19;;;10.99;100.00
47260;BME280;32999;52.412;4.890;2023-04-01T04:46:38;99455.34;;;10.96;100.00
47260;BME280;32999;52.412;4.890;2023-04-01T04:51:40;99461.88;;;11.00;100.00
47260;BME280;32999;52.412;4.890;2023-04-01T04:56:43;99471.38;;;10.96;100.00
47260;BME280;32999;52.412;4.890;2023-04-01T05:01:45;99444.31;;;10.49;100.00
47260;BME280;32999;52.412;4.890;2023-04-01T05:06:47;99481.06;;;10.72;100.00
47260;BME280;32999;52.412;4.890;2023-04-01T05:11:50;99373.75;;;9.88;100.00
47260;BME280;32999;52.412;4.890;2023-04-01T05:16:52;99455.25;;;10.41;100.00
47260;BME280;32999;52.412;4.890;2023-04-01T05:21:54;99510.75;;;10.88;100.00
47260;BME280;32999;52.412;4.890;2023-04-01T05:26:57;99512.44;;;10.83;100.00
47260;BME280;32999;52.412;4.890;2023-04-01T05:31:59;99526.63;;;10.83;100.00
47260;BME280;32999;52.412;4.890;2023-04-01T05:37:00;99437.34;;;10.16;100.00
47260;BME280;32999;52.412;4.890;2023-04-01T05:42:05;99549.75;;;10.89;100.00
47260;BME280;32999;52.412;4.890;2023-04-01T05:47:07;99551.69;;;10.82;100.00
47260;BME280;32999;52.412;4.890;2023-04-01T05:52:08;99563.13;;;10.89;100.00
47260;BME280;32999;52.412;4.890;2023-04-01T05:57:11;99441.19;;;10.02;100.00
47260;BME280;32999;52.412;4.890;2023-04-01T06:02:16;99579.84;;;10.60;100.00
47260;BME280;32999;52.412;4.890;2023-04-01T06:07:18;99557.13;;;10.44;100.00
47260;BME280;32999;52.412;4.890;2023-04-01T06:12:33;99569.59;;;10.57;100.00
47260;BME280;32999;52.412;4.890;2023-04-01T06:23:18;99611.38;;;10.76;100.00
47260;BME280;32999;52.412;4.890;2023-04-01T06:34:20;99621.19;;;10.82;100.00
47260;BME280;32999;52.412;4.890;2023-04-01T06:39:47;99631.28;;;10.80;100.00
47260;BME280;32999;52.412;4.890;2023-04-01T06:45:01;99571.44;;;10.25;100.00
47260;BME280;32999;52.412;4.890;2023-04-01T06:50:14;99607.06;;;10.44;100.00
47260;BME280;32999;52.412;4.890;2023-04-01T06:55:27;99660.28;;;10.77;100.00
47260;BME280;32999;52.412;4.890;2023-04-01T07:00:36;99670.63;;;10.98;100.00
47260;BME280;32999;52.412;4.890;2023-04-01T07:05:40;99693.22;;;11.02;100.00
47260;BME280;32999;52.412;4.890;2023-04-01T07:10:47;99669.19;;;10.96;100.00
47260;BME280;32999;52.412;4.890;2023-04-01T07:15:59;99705.16;;;11.24;100.00
47260;BME280;32999;52.412;4.890;2023-04-01T07:21:10;99743.38;;;11.32;100.00
47260;BME280;32999;52.412;4.890;2023-04-01T07:26:19;99636.38;;;10.88;100.00
47260;BME280;32999;52.412;4.890;2023-04-01T07:31:38;99713.41;;;11.48;100.00
47260;BME280;32999;52.412;4.890;2023-04-01T07:36:49;99730.31;;;11.67;100.00
47260;BME280;32999;52.412;4.890;2023-04-01T07:42:02;99736.66;;;11.47;100.00
47260;BME280;32999;52.412;4.890;2023-04-01T07:47:25;99663.41;;;10.99;100.00
47260;BME280;32999;52.412;4.890;2023-04-01T07:53:05;99622.84;;;10.52;100.00
47260;BME280;32999;52.412;4.890;2023-04-01T08:37:10;99668.53;;;10.75;100.00
47260;BME280;32999;52.412;4.890;2023-04-01T08:42:40;99826.22;;;11.70;100.00
47260;BME280;32999;52.412;4.890;2023-04-01T08:47:56;99799.53;;;11.38;100.00
47260;BME280;32999;52.412;4.890;2023-04-01T08:53:27;99723.00;;;11.06;100.00
47260;BME280;32999;52.412;4.890;2023-04-01T08:58:54;99716.44;;;11.02;100.00
47260;BME280;32999;52.412;4.890;2023-04-01T09:04:20;99851.34;;;12.18;100.00
47260;BME280;32999;52.412;4.890;2023-04-01T09:09:58;99736.06;;;11.20;100.00
47260;BME280;32999;52.412;4.890;2023-04-01T09:26:38;99882.25;;;11.96;100.00
47260;BME280;32999;52.412;4.890;2023-04-01T09:31:57;99879.28;;;11.86;100.00
47260;BME280;32999;52.412;4.890;2023-04-01T09:37:19;99882.81;;;11.80;100.00
47260;BME280;32999;52.412;4.890;2023-04-01T09:42:45;99822.22;;;11.54;100.00
47260;BME280;32999;52.412;4.890;2023-04-01T09:48:00;99900.22;;;12.14;100.00
47260;BME280;32999;52.412;4.890;2023-04-01T09:53:21;99854.56;;;11.84;100.00
47260;BME280;32999;52.412;4.890;2023-04-01T09:58:41;99782.69;;;11.31;100.00
47260;BME280;32999;52.412;4.890;2023-04-01T10:04:23;99937.63;;;12.02;100.00
47260;BME280;32999;52.412;4.890;2023-04-01T10:20:59;99940.66;;;12.37;100.00
47260;BME280;32999;52.412;4.890;2023-04-01T10:26:38;99941.38;;;13.24;100.00
47260;BME280;32999;52.412;4.890;2023-04-01T10:32:03;99937.09;;;13.65;100.00
47260;BME280;32999;52.412;4.890;2023-04-01T10:37:18;99946.09;;;13.58;100.00
47260;BME280;32999;52.412;4.890;2023-04-01T10:42:34;99947.03;;;13.34;100.00
47260;BME280;32999;52.412;4.890;2023-04-01T10:48:12;99948.50;;;13.12;100.00
47260;BME280;32999;52.412;4.890;2023-04-01T10:53:35;99964.00;;;12.91;100.00
47260;BME280;32999;52.412;4.890;2023-04-01T11:15:41;99918.63;;;12.53;100.00
47260;BME280;32999;52.412;4.890;2023-04-01T11:26:41;100009.41;;;12.43;100.00
47260;BME280;32999;52.412;4.890;2023-04-01T11:31:53;100007.72;;;12.49;100.00
47260;BME280;32999;52.412;4.890;2023-04-01T11:37:06;100020.22;;;12.37;100.00
47260;BME280;32999;52.412;4.890;2023-04-01T11:42:17;99882.09;;;11.59;100.00
47260;BME280;32999;52.412;4.890;2023-04-01T11:47:45;100010.25;;;12.44;100.00
47260;BME280;32999;52.412;4.890;2023-04-01T11:53:01;100036.81;;;12.70;100.00
47260;BME280;32999;52.412;4.890;2023-04-01T11:58:21;100063.31;;;13.46;100.00
47260;BME280;32999;52.412;4.890;2023-04-01T12:09:03;100070.13;;;13.06;100.00
47260;BME280;32999;52.412;4.890;2023-04-01T12:14:13;100065.63;;;13.00;100.00
47260;BME280;32999;52.412;4.890;2023-04-01T12:19:26;99981.41;;;12.39;100.00
47260;BME280;32999;52.412;4.890;2023-04-01T12:25:05;100080.16;;;12.67;100.00
47260;BME280;32999;52.412;4.890;2023-04-01T12:30:30;100078.78;;;12.33;100.00
47260;BME280;32999;52.412;4.890;2023-04-01T12:41:42;100003.41;;;11.91;100.00
47260;BME280;32999;52.412;4.890;2023-04-01T12:59:24;100149.84;;;12.67;100.00
47260;BME280;32999;52.412;4.890;2023-04-01T13:04:51;100127.59;;;12.35;100.00
47260;BME280;32999;52.412;4.890;2023-04-01T13:10:02;100101.63;;;11.98;100.00
47260;BME280;32999;52.412;4.890;2023-04-01T13:15:26;100126.63;;;12.23;100.00
47260;BME280;32999;52.412;4.890;2023-04-01T13:20:41;100044.69;;;11.13;100.00
47260;BME280;32999;52.412;4.890;2023-04-01T13:25:51;100173.41;;;11.49;100.00
47260;BME280;32999;52.412;4.890;2023-04-01T13:31:01;100167.66;;;11.46;100.00
47260;BME280;32999;52.412;4.890;2023-04-01T13:36:14;100200.38;;;11.54;100.00
47260;BME280;32999;52.412;4.890;2023-04-01T13:41:28;100166.25;;;11.04;100.00
47260;BME280;32999;52.412;4.890;2023-04-01T13:52:29;100218.31;;;11.34;100.00
47260;BME280;32999;52.412;4.890;2023-04-01T13:57:43;100246.28;;;11.32;100.00
47260;BME280;32999;52.412;4.890;2023-04-01T14:03:09;100205.75;;;11.28;100.00
47260;BME280;32999;52.412;4.890;2023-04-01T14:08:37;100256.56;;;11.08;100.00
47260;BME280;32999;52.412;4.890;2023-04-01T14:13:46;100165.56;;;10.36;100.00
47260;BME280;32999;52.412;4.890;2023-04-01T14:19:03;100281.69;;;11.34;100.00
47260;BME280;32999;52.412;4.890;2023-04-01T14:24:34;100277.72;;;10.97;100.00
47260;BME280;32999;52.412;4.890;2023-04-01T14:29:46;100279.28;;;10.71;100.00
47260;BME280;32999;52.412;4.890;2023-04-01T14:34:59;100303.41;;;10.91;100.00
47260;BME280;32999;52.412;4.890;2023-04-01T14:40:24;100199.25;;;10.37;100.00
47260;BME280;32999;52.412;4.890;2023-04-01T14:50:53;100323.56;;;10.94;100.00
47260;BME280;32999;52.412;4.890;2023-04-01T14:55:58;100333.59;;;10.78;100.00
47260;BME280;32999;52.412;4.890;2023-04-01T15:01:12;100324.25;;;10.54;100.00
47260;BME280;32999;52.412;4.890;2023-04-01T15:06:55;100339.91;;;10.64;100.00
47260;BME280;32999;52.412;4.890;2023-04-01T15:12:11;100347.63;;;10.39;100.00
47260;BME280;32999;52.412;4.890;2023-04-01T15:17:31;100322.31;;;10.07;100.00
47260;BME280;32999;52.412;4.890;2023-04-01T15:22:47;100325.13;;;9.99;100.00
47260;BME280;32999;52.412;4.890;2023-04-01T15:28:01;100236.03;;;9.38;100.00
47260;BME280;32999;52.412;4.890;2023-04-01T15:33:17;100328.81;;;9.98;100.00
47260;BME280;32999;52.412;4.890;2023-04-01T15:38:34;100329.97;;;9.82;100.00
47260;BME280;32999;52.412;4.890;2023-04-01T15:43:43;100420.22;;;10.21;100.00
47260;BME280;32999;52.412;4.890;2023-04-01T15:48:55;100389.31;;;10.12;100.00
47260;BME280;32999;52.412;4.890;2023-04-01T15:54:14;100411.47;;;10.06;100.00
47260;BME280;32999;52.412;4.890;2023-04-01T15:59:29;100317.75;;;9.24;100.00
47260;BME280;32999;52.412;4.890;2023-04-01T16:04:48;100458.63;;;10.20;100.00
47260;BME280;32999;52.412;4.890;2023-04-01T16:10:03;100466.69;;;10.06;100.00
47260;BME280;32999;52.412;4.890;2023-04-01T16:15:19;100483.72;;;10.05;100.00
47260;BME280;32999;52.412;4.890;2023-04-01T16:20:40;100488.63;;;10.01;100.00
47260;BME280;32999;52.412;4.890;2023-04-01T16:25:49;100496.25;;;10.04;100.00
47260;BME280;32999;52.412;4.890;2023-04-01T16:30:58;100502.63;;;10.03;100.00
47260;BME280;32999;52.412;4.890;2023-04-01T16:36:09;100480.78;;;9.57;100.00
47260;BME280;32999;52.412;4.890;2023-04-01T16:41:16;100398.16;;;8.92;100.00
47260;BME280;32999;52.412;4.890;2023-04-01T16:46:34;100534.56;;;9.75;100.00
47260;BME280;32999;52.412;4.890;2023-04-01T16:51:41;100515.88;;;9.39;100.00
47260;BME280;32999;52.412;4.890;2023-04-01T16:56:49;100495.38;;;9.25;100.00
47260;BME280;32999;52.412;4.890;2023-04-01T17:01:55;100510.00;;;9.29;100.00
47260;BME280;32999;52.412;4.890;2023-04-01T17:07:05;100587.97;;;9.61;100.00
47260;BME280;32999;52.412;4.890;2023-04-01T17:12:18;100622.16;;;9.72;100.00
47260;BME280;32999;52.412;4.890;2023-04-01T17:17:31;100573.16;;;9.58;100.00
47260;BME280;32999;52.412;4.890;2023-04-01T17:22:39;100626.50;;;9.43;100.00
47260;BME280;32999;52.412;4.890;2023-04-01T17:27:50;100641.59;;;9.36;100.00
47260;BME280;32999;52.412;4.890;2023-04-01T17:33:10;100672.75;;;9.21;100.00
47260;BME280;32999;52.412;4.890;2023-04-01T17:38:23;100622.25;;;8.90;100.00
47260;BME280;32999;52.412;4.890;2023-04-01T17:43:35;100596.06;;;8.56;100.00
47260;BME280;32999;52.412;4.890;2023-04-01T17:48:45;100650.28;;;8.63;100.00
47260;BME280;32999;52.412;4.890;2023-04-01T17:53:59;100697.56;;;9.07;100.00
47260;BME280;32999;52.412;4.890;2023-04-01T17:59:11;100581.22;;;8.39;100.00
47260;BME280;32999;52.412;4.890;2023-04-01T18:04:53;100724.25;;;8.99;100.00
47260;BME280;32999;52.412;4.890;2023-04-01T18:10:10;100736.47;;;8.93;100.00
47260;BME280;32999;52.412;4.890;2023-04-01T18:15:37;100748.13;;;8.69;100.00
47260;BME280;32999;52.412;4.890;2023-04-01T18:20:52;100681.75;;;8.37;100.00
47260;BME280;32999;52.412;4.890;2023-04-01T18:26:05;100690.97;;;8.18;100.00
47260;BME280;32999;52.412;4.890;2023-04-01T18:31:12;100778.63;;;8.36;100.00
47260;BME280;32999;52.412;4.890;2023-04-01T18:36:24;100805.06;;;8.68;100.00
47260;BME280;32999;52.412;4.890;2023-04-01T18:41:34;100774.53;;;8.56;100.00
47260;BME280;32999;52.412;4.890;2023-04-01T18:52:38;100845.28;;;8.59;100.00
47260;BME280;32999;52.412;4.890;2023-04-01T19:10:11;100878.78;;;8.29;100.00
47260;BME280;32999;52.412;4.890;2023-04-01T19:27:44;100930.09;;;8.14;100.00
47260;BME280;32999;52.412;4.890;2023-04-01T19:33:41;100946.38;;;7.95;100.00
47260;BME280;32999;52.412;4.890;2023-04-01T20:10:29;101026.44;;;7.43;100.00
47260;BME280;32999;52.412;4.890;2023-04-01T20:15:41;101055.59;;;7.61;100.00
47260;BME280;32999;52.412;4.890;2023-04-01T20:20:56;100991.72;;;7.37;100.00
47260;BME280;32999;52.412;4.890;2023-04-01T22:26:49;101278.22;;;6.81;100.00
